Time;durP1;ratioP1;P1;durP2;ratioP2;P2;SDS_P1;SDS_P2;PMS_P1;PMS_P2;Temp;Humidity;BMP_temperature;BMP_pressure;BME280_temperature;BME280_humidity;BME280_pressure;Samples;Min_cycle;Max_cycle;Signal;HPM_P1;HPM_P2
2021/11/21 00:00:45;;;;;;;;;;;;;;;;;;2074904;28;1237;-86
2021/11/21 00:01:47;;;;;;;;;;;;;;;;;;2073097;28;2071;-87
2021/11/21 00:02:48;;;;;;;;;;;;;;;;;;2066254;28;1982;-87
2021/11/21 00:03:52;;;;;;;;;;;;;;;;;;2074573;28;1031;-87
2021/11/21 00:04:52;;;;;;;;;;;;;;;;;;2074626;28;1368;-89
2021/11/21 00:05:57;;;;;;;;;;;;;;;;;;2066701;28;2022;-88
2021/11/21 00:06:58;;;;;;;;;;;;;;;;;;2066424;28;1430;-86
2021/11/21 00:08:00;;;;;;;;;;;;;;;;;;2058484;28;1217;-86
2021/11/21 00:09:00;;;;;;;;;;;;;;;;;;2060962;28;1427;-87
2021/11/21 00:10:02;;;;;;;;;;;;;;;;;;2066765;28;1291;-86
2021/11/21 00:11:03;;;;;;;;;;;;;;;;;;2082442;28;2054;-87
2021/11/21 00:12:05;;;;;;;;;;;;;;;;;;2074685;28;1336;-86
2021/11/21 00:13:06;;;;;;;;;;;;;;;;;;2066656;28;1349;-86
2021/11/21 00:14:09;;;;;;;;;;;;;;;;;;2074239;28;2057;-87
2021/11/21 00:15:10;;;;;;;;;;;;;;;;;;2074487;28;1280;-87
2021/11/21 00:16:12;;;;;;;;;;;;;;;;;;2059826;28;1354;-86
2021/11/21 00:17:12;;;;;;;;;;;;;;;;;;2066010;28;1241;-86
2021/11/21 00:18:14;;;;;;;;;;;;;;;;;;2066539;28;1369;-86
2021/11/21 00:19:18;;;;;;;;;;;;;;;;;;2053548;28;1941;-87
2021/11/21 00:20:18;;;;;;;;;;;;;;;;;;2059239;28;1450;-87
2021/11/21 00:21:20;;;;;;;;;;;;;;;;;;2066310;28;1557;-87
2021/11/21 00:22:21;;;;;;;;;;;;;;;;;;2066281;28;1331;-87
2021/11/21 00:23:23;;;;;;;;;;;;;;;;;;2074706;28;1914;-86
2021/11/21 00:24:24;;;;;;;;;;;;;;;;;;2074480;28;1391;-86
2021/11/21 00:25:26;;;;;;;;;;;;;;;;;;2074220;28;1331;-86
2021/11/21 00:26:27;;;;;;;;;;;;;;;;;;2074817;28;1136;-87
2021/11/21 00:27:29;;;;;;;;;;;;;;;;;;2073941;28;1334;-89
2021/11/21 00:28:30;;;;;;;;;;;;;;;;;;2091297;28;1321;-87
2021/11/21 00:29:33;;;;;;;;;;;;;;;;;;2074327;28;1819;-87
2021/11/21 00:30:35;;;;;;;;;;;;;;;;;;2066841;28;1333;-87
2021/11/21 00:31:36;;;;;;;;;;;;;;;;;;2074262;28;1293;-87
2021/11/21 00:32:38;;;;;;;;;;;;;;;;;;2082258;28;1412;-87
2021/11/21 00:33:39;;;;;;;;;;;;;;;;;;2082602;28;1272;-87
2021/11/21 00:34:41;;;;;;;;;;;;;;;;;;2082997;28;1451;-87
2021/11/21 00:35:43;;;;;;;;;;;;;;;;;;2082410;28;1366;-88
2021/11/21 00:36:47;;;;;;;;;;;;;;;;;;2074941;28;1341;-87
2021/11/21 00:37:48;;;;;;;;;;;;;;;;;;2075014;28;1281;-86
2021/11/21 00:38:50;;;;;;;;;;;;;;;;;;2074242;28;1201;-87
2021/11/21 00:39:51;;;;;;;;;;;;;;;;;;2074465;28;1370;-85
2021/11/21 00:40:53;;;;;;;;;;;;;;;;;;2074663;28;960;-85
2021/11/21 00:41:55;;;;;;;;;;;;;;;;;;2082526;28;1226;-85
2021/11/21 00:42:58;;;;;;;;;;;;;;;;;;2074716;28;1906;-85
2021/11/21 00:43:58;;;;;;;;;;;;;;;;;;2074356;28;1295;-88
2021/11/21 00:45:13;;;;;;;;;;;;;;;;;;2066153;28;1247;-87
2021/11/21 00:46:15;;;;;;;;;;;;;;;;;;2062171;28;2057;-90
2021/11/21 00:47:15;;;;;;;;;;;;;;;;;;2074690;28;1136;-90
2021/11/21 00:48:21;;;;;;;;;;;;;;;;;;2074428;28;1553;-87
2021/11/21 00:49:21;;;;;;;;;;;;;;;;;;2074541;28;2128;-88
2021/11/21 00:50:27;;;;;;;;;;;;;;;;;;2082659;28;1276;-86
2021/11/21 00:51:28;;;;;;;;;;;;;;;;;;2074441;28;1372;-86
2021/11/21 00:52:30;;;;;;;;;;;;;;;;;;2074263;28;1289;-86
2021/11/21 00:53:33;;;;;;;;;;;;;;;;;;2074129;28;1323;-88
2021/11/21 00:54:43;;;;;;;;;;;;;;;;;;2066257;28;1366;-88
2021/11/21 00:55:50;;;;;;;;;;;;;;;;;;2067211;28;1244;-88
2021/11/21 00:56:51;;;;;;;;;;;;;;;;;;2062055;28;1898;-87
2021/11/21 00:57:53;;;;;;;;;;;;;;;;;;2074357;28;1081;-87
2021/11/21 00:58:53;;;;;;;;;;;;;;;;;;2074251;28;1263;-85
2021/11/21 00:59:55;;;;;;;;;;;;;;;;;;2066100;28;1566;-90
2021/11/21 01:00:58;;;;;;;;;;;;;;;;;;2074746;28;829;-88
2021/11/21 01:02:01;;;;;;;;;;;;;;;;;;2074142;28;1250;-88
2021/11/21 01:03:03;;;;;;;;;;;;;;;;;;2066455;28;1967;-87
2021/11/21 01:04:05;;;;;;;;;;;;;;;;;;2069389;28;2014;-87
2021/11/21 01:05:07;;;;;;;;;;;;;;;;;;2082687;28;889;-89
2021/11/21 01:06:09;;;;;;;;;;;;;;;;;;2082562;28;1452;-89
2021/11/21 01:07:10;;;;;;;;;;;;;;;;;;2082457;28;1318;-89
2021/11/21 01:08:12;;;;;;;;;;;;;;;;;;2082801;28;777;-88
2021/11/21 01:09:15;;;;;;;;;;;;;;;;;;2073725;28;1201;-89
2021/11/21 01:10:17;;;;;;;;;;;;;;;;;;2066389;28;1210;-87
2021/11/21 01:11:18;;;;;;;;;;;;;;;;;;2066418;28;1318;-88
2021/11/21 01:12:20;;;;;;;;;;;;;;;;;;2066433;28;1320;-89
2021/11/21 01:13:21;;;;;;;;;;;;;;;;;;2066209;28;1477;-89
2021/11/21 01:14:23;;;;;;;;;;;;;;;;;;2066035;28;1227;-89
2021/11/21 01:15:24;;;;;;;;;;;;;;;;;;2082629;28;1342;-89
2021/11/21 01:16:28;;;;;;;;;;;;;;;;;;2074476;28;1303;-89
2021/11/21 01:17:29;;;;;;;;;;;;;;;;;;2074182;28;1465;-89
2021/11/21 01:18:31;;;;;;;;;;;;;;;;;;2074368;28;1489;-89
2021/11/21 01:19:32;;;;;;;;;;;;;;;;;;2066069;28;1205;-89
2021/11/21 01:20:36;;;;;;;;;;;;;;;;;;2058381;28;1403;-88
2021/11/21 01:21:36;;;;;;;;;;;;;;;;;;2065854;28;1885;-88
2021/11/21 01:22:38;;;;;;;;;;;;;;;;;;2074299;28;959;-88
2021/11/21 01:23:39;;;;;;;;;;;;;;;;;;2073854;28;2040;-90
2021/11/21 01:24:40;;;;;;;;;;;;;;;;;;2074287;28;1197;-87
2021/11/21 01:25:41;;;;;;;;;;;;;;;;;;2066047;28;1455;-88
2021/11/21 01:26:43;;;;;;;;;;;;;;;;;;2065740;28;1229;-87
2021/11/21 01:27:44;;;;;;;;;;;;;;;;;;2073764;28;1430;-89
2021/11/21 01:28:46;;;;;;;;;;;;;;;;;;2075395;28;1369;-88
2021/11/21 01:29:46;;;;;;;;;;;;;;;;;;2075927;28;1256;-88
2021/11/21 01:30:48;;;;;;;;;;;;;;;;;;2075850;28;1252;-88
2021/11/21 01:31:50;;;;;;;;;;;;;;;;;;2075537;28;2031;-87
2021/11/21 01:32:52;;;;;;;;;;;;;;;;;;2067730;28;1390;-90
2021/11/21 01:33:52;;;;;;;;;;;;;;;;;;2069265;28;1211;-88
2021/11/21 01:34:55;;;;;;;;;;;;;;;;;;2075784;28;1327;-88
2021/11/21 01:35:57;;;;;;;;;;;;;;;;;;2075445;28;1406;-88
2021/11/21 01:36:58;;;;;;;;;;;;;;;;;;2067933;28;1401;-89
2021/11/21 01:38:00;;;;;;;;;;;;;;;;;;2059581;28;1407;-87
2021/11/21 01:39:01;;;;;;;;;;;;;;;;;;2067837;28;1324;-88
2021/11/21 01:40:04;;;;;;;;;;;;;;;;;;2075431;28;1250;-88
2021/11/21 01:41:06;;;;;;;;;;;;;;;;;;2075144;28;2081;-88
2021/11/21 01:42:06;;;;;;;;;;;;;;;;;;2067683;28;1453;-88
2021/11/21 01:43:09;;;;;;;;;;;;;;;;;;2067735;28;1906;-89
2021/11/21 01:44:13;;;;;;;;;;;;;;;;;;2075608;28;2032;-89
2021/11/21 01:45:14;;;;;;;;;;;;;;;;;;2067600;28;1191;-89
2021/11/21 01:46:16;;;;;;;;;;;;;;;;;;2059705;28;1246;-88
2021/11/21 01:47:18;;;;;;;;;;;;;;;;;;2067809;28;1183;-88
2021/11/21 01:48:21;;;;;;;;;;;;;;;;;;2059863;28;1194;-89
2021/11/21 01:49:22;;;;;;;;;;;;;;;;;;2075409;28;1330;-89
2021/11/21 01:50:25;;;;;;;;;;;;;;;;;;2083883;28;1431;-90
2021/11/21 01:51:26;;;;;;;;;;;;;;;;;;2075170;28;1259;-91
2021/11/21 01:52:27;;;;;;;;;;;;;;;;;;2076126;28;876;-90
2021/11/21 01:53:29;;;;;;;;;;;;;;;;;;2083593;28;1300;-90
2021/11/21 01:54:42;;;;;;;;;;;;;;;;;;2075888;28;1472;-89
2021/11/21 01:58:00;;;;;;;;;;;;;;;;;;2071670;28;1154;-87
2021/11/21 01:59:00;;;;;;;;;;;;;;;;;;2083328;28;2102;-87
2021/11/21 02:00:03;;;;;;;;;;;;;;;;;;2067542;28;1426;-87
2021/11/21 02:01:14;;;;;;;;;;;;;;;;;;2069061;28;685;-87
2021/11/21 02:02:14;;;;;;;;;;;;;;;;;;2075429;28;1286;-87
2021/11/21 02:03:18;;;;;;;;;;;;;;;;;;2059281;28;1903;-87
2021/11/21 02:04:19;;;;;;;;;;;;;;;;;;2059852;28;1310;-87
2021/11/21 02:05:21;;;;;;;;;;;;;;;;;;2067310;28;1304;-87
2021/11/21 02:06:21;;;;;;;;;;;;;;;;;;2075269;28;1352;-87
2021/11/21 02:07:23;;;;;;;;;;;;;;;;;;2075352;28;1468;-87
2021/11/21 02:08:24;;;;;;;;;;;;;;;;;;2075506;28;1220;-87
2021/11/21 02:09:26;;;;;;;;;;;;;;;;;;2067172;28;1338;-90
2021/11/21 02:10:27;;;;;;;;;;;;;;;;;;2067449;28;1272;-87
2021/11/21 02:11:29;;;;;;;;;;;;;;;;;;2067223;28;1205;-87
2021/11/21 02:12:30;;;;;;;;;;;;;;;;;;2059302;28;1402;-88
2021/11/21 02:13:31;;;;;;;;;;;;;;;;;;2067469;28;1446;-87
2021/11/21 02:14:32;;;;;;;;;;;;;;;;;;2075773;28;895;-87
2021/11/21 02:15:35;;;;;;;;;;;;;;;;;;2067555;28;1521;-87
2021/11/21 02:16:35;;;;;;;;;;;;;;;;;;2067671;28;1386;-87
2021/11/21 02:21:44;;;;;;;;;;;;;;;;;;2075538;28;909;-87
2021/11/21 02:22:45;;;;;;;;;;;;;;;;;;2074934;28;1385;-87
2021/11/21 02:23:47;;;;;;;;;;;;;;;;;;2058688;28;1910;-87
2021/11/21 02:24:48;;;;;;;;;;;;;;;;;;2059232;28;1208;-87
2021/11/21 02:25:50;;;;;;;;;;;;;;;;;;2066611;28;1335;-86
2021/11/21 02:26:50;;;;;;;;;;;;;;;;;;2058759;28;1393;-87
2021/11/21 02:27:52;;;;;;;;;;;;;;;;;;2066552;28;1247;-87
2021/11/21 02:28:55;;;;;;;;;;;;;;;;;;2058716;28;1332;-87
2021/11/21 02:29:56;;;;;;;;;;;;;;;;;;2059009;28;1418;-87
2021/11/21 02:30:58;;;;;;;;;;;;;;;;;;2067006;28;877;-96
2021/11/21 02:31:58;;;;;;;;;;;;;;;;;;2066769;28;1241;-90
2021/11/21 02:33:01;;;;;;;;;;;;;;;;;;2058656;28;1401;-87
2021/11/21 02:34:03;;;;;;;;;;;;;;;;;;2050399;28;2116;-88
2021/11/21 02:35:04;;;;;;;;;;;;;;;;;;2058960;28;1081;-87
2021/11/21 02:36:08;;;;;;;;;;;;;;;;;;2066530;28;1352;-87
2021/11/21 02:37:10;;;;;;;;;;;;;;;;;;2066673;28;1569;-87
2021/11/21 02:38:13;;;;;;;;;;;;;;;;;;2066624;28;1248;-86
2021/11/21 02:39:13;;;;;;;;;;;;;;;;;;2058735;28;1258;-86
2021/11/21 02:40:17;;;;;;;;;;;;;;;;;;2066905;28;1199;-86
2021/11/21 02:41:18;;;;;;;;;;;;;;;;;;2066813;28;1332;-87
2021/11/21 02:42:25;;;;;;;;;;;;;;;;;;2067018;28;1204;-87
2021/11/21 02:43:26;;;;;;;;;;;;;;;;;;2066329;28;1906;-90
2021/11/21 02:44:29;;;;;;;;;;;;;;;;;;2060405;28;1498;-87
2021/11/21 02:45:30;;;;;;;;;;;;;;;;;;2066932;28;1225;-87
2021/11/21 02:46:32;;;;;;;;;;;;;;;;;;2066946;28;1147;-87
2021/11/21 02:47:33;;;;;;;;;;;;;;;;;;2058972;28;1205;-87
2021/11/21 02:48:36;;;;;;;;;;;;;;;;;;2059474;28;1312;-86
2021/11/21 02:49:38;;;;;;;;;;;;;;;;;;2067034;28;1399;-86
2021/11/21 02:50:40;;;;;;;;;;;;;;;;;;2074905;28;1522;-86
2021/11/21 02:51:40;;;;;;;;;;;;;;;;;;2082932;28;1327;-86
2021/11/21 02:52:44;;;;;;;;;;;;;;;;;;2059188;28;1320;-87
2021/11/21 02:53:47;;;;;;;;;;;;;;;;;;2051586;28;1456;-86
2021/11/21 02:54:48;;;;;;;;;;;;;;;;;;2059523;28;1467;-87
2021/11/21 02:55:52;;;;;;;;;;;;;;;;;;2067184;28;1369;-86
2021/11/21 02:56:52;;;;;;;;;;;;;;;;;;2067382;28;1206;-87
2021/11/21 02:57:54;;;;;;;;;;;;;;;;;;2066702;28;1353;-87
2021/11/21 02:58:57;;;;;;;;;;;;;;;;;;2072747;28;2153;-87
2021/11/21 02:59:58;;;;;;;;;;;;;;;;;;2067542;28;1352;-88
2021/11/21 03:01:00;;;;;;;;;;;;;;;;;;2075045;28;1298;-87
2021/11/21 03:02:01;;;;;;;;;;;;;;;;;;2074918;28;1338;-87
2021/11/21 03:03:03;;;;;;;;;;;;;;;;;;2066716;28;1334;-86
2021/11/21 03:04:04;;;;;;;;;;;;;;;;;;2075261;28;1918;-86
2021/11/21 03:05:06;;;;;;;;;;;;;;;;;;2075905;28;849;-87
2021/11/21 03:06:06;;;;;;;;;;;;;;;;;;2074715;28;1157;-87
2021/11/21 03:07:10;;;;;;;;;;;;;;;;;;2075111;28;1151;-86
2021/11/21 03:08:12;;;;;;;;;;;;;;;;;;2074969;28;1395;-87
2021/11/21 03:09:20;;;;;;;;;;;;;;;;;;2066676;28;1205;-86
2021/11/21 03:10:21;;;;;;;;;;;;;;;;;;2068070;28;1262;-87
2021/11/21 03:11:28;;;;;;;;;;;;;;;;;;2066948;28;1341;-87
2021/11/21 03:12:28;;;;;;;;;;;;;;;;;;2067838;28;1374;-87
2021/11/21 03:13:30;;;;;;;;;;;;;;;;;;2066579;28;1307;-89
2021/11/21 03:14:31;;;;;;;;;;;;;;;;;;2075194;28;1322;-87
2021/11/21 03:15:33;;;;;;;;;;;;;;;;;;2083270;28;867;-87
2021/11/21 03:16:34;;;;;;;;;;;;;;;;;;2080043;28;1458;-87
2021/11/21 03:17:36;;;;;;;;;;;;;;;;;;2075030;28;1307;-88
2021/11/21 03:18:37;;;;;;;;;;;;;;;;;;2075119;28;1340;-87
2021/11/21 03:19:39;;;;;;;;;;;;;;;;;;2074956;28;1255;-86
2021/11/21 03:20:39;;;;;;;;;;;;;;;;;;2067204;28;1421;-88
2021/11/21 03:21:41;;;;;;;;;;;;;;;;;;2066839;28;1606;-87
2021/11/21 03:22:42;;;;;;;;;;;;;;;;;;2075279;28;1561;-87
2021/11/21 03:23:46;;;;;;;;;;;;;;;;;;2066388;28;2054;-87
2021/11/21 03:24:50;;;;;;;;;;;;;;;;;;2059326;28;1332;-89
2021/11/21 03:25:52;;;;;;;;;;;;;;;;;;2066911;28;1463;-88
2021/11/21 03:26:53;;;;;;;;;;;;;;;;;;2067089;28;1325;-88
2021/11/21 03:27:55;;;;;;;;;;;;;;;;;;2067138;28;1279;-88
2021/11/21 03:28:55;;;;;;;;;;;;;;;;;;2059162;28;1270;-89
2021/11/21 03:29:57;;;;;;;;;;;;;;;;;;2050945;29;1228;-89
2021/11/21 03:30:59;;;;;;;;;;;;;;;;;;2067015;28;1304;-89
2021/11/21 03:32:00;;;;;;;;;;;;;;;;;;2075167;28;1213;-88
2021/11/21 03:33:03;;;;;;;;;;;;;;;;;;2066795;28;1398;-88
2021/11/21 03:34:04;;;;;;;;;;;;;;;;;;2070131;28;2065;-88
2021/11/21 03:35:08;;;;;;;;;;;;;;;;;;2082967;28;1423;-88
2021/11/21 03:36:08;;;;;;;;;;;;;;;;;;2066520;28;1287;-88
2021/11/21 03:37:11;;;;;;;;;;;;;;;;;;2058631;28;1314;-88
2021/11/21 03:38:13;;;;;;;;;;;;;;;;;;2074959;28;1442;-88
2021/11/21 03:39:15;;;;;;;;;;;;;;;;;;2074848;28;1346;-88
2021/11/21 03:40:18;;;;;;;;;;;;;;;;;;2066915;28;1266;-88
2021/11/21 03:41:18;;;;;;;;;;;;;;;;;;2069620;28;2070;-89
2021/11/21 03:42:21;;;;;;;;;;;;;;;;;;2066962;28;1394;-88
2021/11/21 03:43:21;;;;;;;;;;;;;;;;;;2074940;28;1280;-88
2021/11/21 03:48:09;;;;;;;;;;;;;;;;;;2083477;28;1414;-88
2021/11/21 03:49:10;;;;;;;;;;;;;;;;;;2066681;28;1416;-87
2021/11/21 03:52:36;;;;;;;;;;;;;;;;;;2066256;28;943;-88
2021/11/21 03:53:37;;;;;;;;;;;;;;;;;;2057832;28;1375;-87
2021/11/21 03:54:40;;;;;;;;;;;;;;;;;;2060931;28;1406;-87
2021/11/21 03:55:41;;;;;;;;;;;;;;;;;;2074606;28;1301;-87
2021/11/21 03:56:43;;;;;;;;;;;;;;;;;;2074426;28;1456;-87
2021/11/21 03:57:45;;;;;;;;;;;;;;;;;;2082661;28;1314;-87
2021/11/21 03:58:47;;;;;;;;;;;;;;;;;;2082497;28;1383;-87
2021/11/21 03:59:47;;;;;;;;;;;;;;;;;;2074763;28;1242;-87
2021/11/21 04:00:50;;;;;;;;;;;;;;;;;;2074547;28;1420;-87
2021/11/21 04:01:50;;;;;;;;;;;;;;;;;;2082675;28;1018;-88
2021/11/21 04:02:53;;;;;;;;;;;;;;;;;;2082676;28;1253;-88
2021/11/21 04:03:53;;;;;;;;;;;;;;;;;;2082309;28;1929;-87
2021/11/21 04:04:56;;;;;;;;;;;;;;;;;;2082757;28;1436;-88
2021/11/21 04:05:57;;;;;;;;;;;;;;;;;;2074508;28;1198;-88
2021/11/21 04:10:58;;;;;;;;;;;;;;;;;;2066796;28;994;-87
2021/11/21 04:11:59;;;;;;;;;;;;;;;;;;2058217;28;1079;-87
2021/11/21 04:13:01;;;;;;;;;;;;;;;;;;2050062;29;1241;-87
2021/11/21 04:14:01;;;;;;;;;;;;;;;;;;2042010;29;1229;-87
2021/11/21 04:15:04;;;;;;;;;;;;;;;;;;2050243;29;1114;-87
2021/11/21 04:16:05;;;;;;;;;;;;;;;;;;2050906;28;1864;-87
2021/11/21 04:17:07;;;;;;;;;;;;;;;;;;2050113;29;1414;-86
2021/11/21 04:18:09;;;;;;;;;;;;;;;;;;2050094;29;1569;-87
2021/11/21 04:19:10;;;;;;;;;;;;;;;;;;2049790;29;2135;-87
2021/11/21 04:20:13;;;;;;;;;;;;;;;;;;2042196;29;1332;-88
2021/11/21 04:21:14;;;;;;;;;;;;;;;;;;2052125;28;2003;-88
2021/11/21 04:22:16;;;;;;;;;;;;;;;;;;2058325;28;1309;-88
2021/11/21 04:23:17;;;;;;;;;;;;;;;;;;2058291;28;810;-88
2021/11/21 04:24:18;;;;;;;;;;;;;;;;;;2057873;28;1981;-87
2021/11/21 04:25:20;;;;;;;;;;;;;;;;;;2058140;28;1260;-89
2021/11/21 04:26:23;;;;;;;;;;;;;;;;;;2066025;28;970;-87
2021/11/21 04:27:26;;;;;;;;;;;;;;;;;;2071280;28;1323;-87
2021/11/21 04:28:28;;;;;;;;;;;;;;;;;;2066604;28;1317;-88
2021/11/21 04:29:30;;;;;;;;;;;;;;;;;;2066670;28;2013;-88
2021/11/21 04:30:32;;;;;;;;;;;;;;;;;;2074551;28;1168;-86
2021/11/21 04:31:33;;;;;;;;;;;;;;;;;;2074374;28;819;-86
2021/11/21 04:32:37;;;;;;;;;;;;;;;;;;2066524;28;936;-86
2021/11/21 04:33:38;;;;;;;;;;;;;;;;;;2066673;28;1464;-86
2021/11/21 04:34:40;;;;;;;;;;;;;;;;;;2066807;28;1146;-86
2021/11/21 04:35:40;;;;;;;;;;;;;;;;;;2066476;28;1268;-86
2021/11/21 04:36:42;;;;;;;;;;;;;;;;;;2074459;28;1194;-86
2021/11/21 04:37:43;;;;;;;;;;;;;;;;;;2082416;28;1281;-86
2021/11/21 04:38:45;;;;;;;;;;;;;;;;;;2075001;28;1443;-87
2021/11/21 04:39:46;;;;;;;;;;;;;;;;;;2074180;28;1223;-86
2021/11/21 04:40:48;;;;;;;;;;;;;;;;;;2082600;28;1323;-88
2021/11/21 04:41:51;;;;;;;;;;;;;;;;;;2074470;28;1302;-88
2021/11/21 04:42:53;;;;;;;;;;;;;;;;;;2074744;28;1435;-88
2021/11/21 04:43:54;;;;;;;;;;;;;;;;;;2074493;28;1283;-88
2021/11/21 04:44:56;;;;;;;;;;;;;;;;;;2074770;28;1975;-88
2021/11/21 04:45:57;;;;;;;;;;;;;;;;;;2074277;28;1277;-88
2021/11/21 04:46:58;;;;;;;;;;;;;;;;;;2066688;28;1168;-91
2021/11/21 04:47:59;;;;;;;;;;;;;;;;;;2074806;28;1440;-87
2021/11/21 04:49:02;;;;;;;;;;;;;;;;;;2074784;28;1497;-88
2021/11/21 04:50:04;;;;;;;;;;;;;;;;;;2074828;28;1328;-88
2021/11/21 04:51:06;;;;;;;;;;;;;;;;;;2067269;28;1973;-88
2021/11/21 04:52:07;;;;;;;;;;;;;;;;;;2074114;28;1474;-88
2021/11/21 04:55:39;;;;;;;;;;;;;;;;;;2075231;28;603;-88
2021/11/21 04:56:48;;;;;;;;;;;;;;;;;;2074838;28;1420;-89
2021/11/21 04:58:00;;;;;;;;;;;;;;;;;;2066768;28;1453;-90
2021/11/21 04:59:17;;;;;;;;;;;;;;;;;;2061203;28;1257;-90
2021/11/21 05:08:16;;;;;;;;;;;;;;;;;;2076401;28;776;-88
2021/11/21 05:11:28;;;;;;;;;;;;;;;;;;2076063;28;1919;-86
2021/11/21 05:12:28;;;;;;;;;;;;;;;;;;2075705;28;1354;-86
2021/11/21 05:13:32;;;;;;;;;;;;;;;;;;2075559;28;1366;-86
2021/11/21 05:14:32;;;;;;;;;;;;;;;;;;2076059;28;1211;-86
2021/11/21 05:15:34;;;;;;;;;;;;;;;;;;2059723;28;1354;-86
2021/11/21 05:16:35;;;;;;;;;;;;;;;;;;2067497;28;1342;-86
2021/11/21 05:17:37;;;;;;;;;;;;;;;;;;2067707;28;1420;-85
2021/11/21 05:18:38;;;;;;;;;;;;;;;;;;2067878;28;1306;-86
2021/11/21 05:19:40;;;;;;;;;;;;;;;;;;2076030;28;801;-86
2021/11/21 05:20:40;;;;;;;;;;;;;;;;;;2075713;28;1273;-85
2021/11/21 05:21:43;;;;;;;;;;;;;;;;;;2075631;28;1279;-86
2021/11/21 05:22:45;;;;;;;;;;;;;;;;;;2067722;28;1237;-86
2021/11/21 05:23:47;;;;;;;;;;;;;;;;;;2075868;28;991;-87
2021/11/21 05:24:47;;;;;;;;;;;;;;;;;;2075657;28;1958;-85
2021/11/21 05:25:49;;;;;;;;;;;;;;;;;;2067712;28;1412;-85
2021/11/21 05:26:51;;;;;;;;;;;;;;;;;;2074514;28;1666;-89
2021/11/21 05:27:53;;;;;;;;;;;;;;;;;;2059924;28;1283;-86
2021/11/21 05:28:55;;;;;;;;;;;;;;;;;;2068025;28;1439;-88
2021/11/21 05:29:57;;;;;;;;;;;;;;;;;;2075527;28;1275;-88
2021/11/21 05:30:58;;;;;;;;;;;;;;;;;;2074473;28;1822;-86
2021/11/21 05:32:00;;;;;;;;;;;;;;;;;;2068523;28;1454;-85
2021/11/21 05:33:00;;;;;;;;;;;;;;;;;;2075147;28;1457;-86
2021/11/21 05:34:03;;;;;;;;;;;;;;;;;;2074844;28;1898;-86
2021/11/21 05:35:04;;;;;;;;;;;;;;;;;;2075608;28;1374;-86
2021/11/21 05:36:06;;;;;;;;;;;;;;;;;;2083080;28;1666;-85
2021/11/21 05:37:07;;;;;;;;;;;;;;;;;;2083996;28;1532;-86
2021/11/21 05:38:08;;;;;;;;;;;;;;;;;;2084204;28;1092;-87
2021/11/21 05:39:09;;;;;;;;;;;;;;;;;;2071952;28;1406;-86
2021/11/21 05:40:12;;;;;;;;;;;;;;;;;;2059095;28;1401;-86
2021/11/21 05:41:13;;;;;;;;;;;;;;;;;;2068406;28;1817;-86
2021/11/21 05:42:14;;;;;;;;;;;;;;;;;;2070062;28;1462;-85
2021/11/21 05:43:15;;;;;;;;;;;;;;;;;;2083669;28;1461;-85
2021/11/21 05:44:19;;;;;;;;;;;;;;;;;;2083751;28;1486;-86
2021/11/21 05:45:20;;;;;;;;;;;;;;;;;;2075092;28;1918;-86
2021/11/21 05:46:23;;;;;;;;;;;;;;;;;;2075380;28;1873;-86
2021/11/21 05:47:24;;;;;;;;;;;;;;;;;;2075045;28;1399;-85
2021/11/21 05:48:26;;;;;;;;;;;;;;;;;;2073468;28;1370;-85
2021/11/21 05:49:30;;;;;;;;;;;;;;;;;;2074332;28;1847;-89
2021/11/21 05:50:31;;;;;;;;;;;;;;;;;;2075757;28;1288;-86
2021/11/21 05:51:33;;;;;;;;;;;;;;;;;;2079991;28;1322;-86
2021/11/21 05:52:35;;;;;;;;;;;;;;;;;;2075320;28;1587;-85
2021/11/21 05:53:35;;;;;;;;;;;;;;;;;;2067028;28;1485;-84
2021/11/21 05:54:37;;;;;;;;;;;;;;;;;;2059361;28;1352;-85
2021/11/21 05:55:38;;;;;;;;;;;;;;;;;;2075439;28;1410;-84
2021/11/21 05:56:40;;;;;;;;;;;;;;;;;;2075214;28;1754;-85
2021/11/21 05:57:41;;;;;;;;;;;;;;;;;;2075031;28;1265;-85
2021/11/21 05:58:43;;;;;;;;;;;;;;;;;;2083369;28;1398;-85
2021/11/21 05:59:45;;;;;;;;;;;;;;;;;;2075494;28;1207;-85
2021/11/21 06:00:47;;;;;;;;;;;;;;;;;;2068055;28;1618;-85
2021/11/21 06:01:48;;;;;;;;;;;;;;;;;;2072383;28;1395;-85
2021/11/21 06:02:52;;;;;;;;;;;;;;;;;;2075907;28;1395;-86
2021/11/21 06:03:54;;;;;;;;;;;;;;;;;;2082866;28;1639;-85
2021/11/21 06:04:56;;;;;;;;;;;;;;;;;;2075357;28;1914;-84
2021/11/21 06:05:56;;;;;;;;;;;;;;;;;;2059161;28;1295;-85
2021/11/21 06:06:59;;;;;;;;;;;;;;;;;;2058663;28;1366;-86
2021/11/21 06:08:04;;;;;;;;;;;;;;;;;;2068176;28;1418;-85
2021/11/21 06:09:06;;;;;;;;;;;;;;;;;;2068417;28;1304;-85
2021/11/21 06:10:07;;;;;;;;;;;;;;;;;;2075507;28;1428;-85
2021/11/21 06:11:09;;;;;;;;;;;;;;;;;;2074995;28;1750;-84
2021/11/21 06:12:10;;;;;;;;;;;;;;;;;;2075331;28;1521;-84
2021/11/21 06:13:12;;;;;;;;;;;;;;;;;;2069732;28;1324;-83
2021/11/21 06:14:13;;;;;;;;;;;;;;;;;;2074574;28;1849;-84
2021/11/21 06:15:16;;;;;;;;;;;;;;;;;;2074845;28;1379;-84
2021/11/21 06:16:17;;;;;;;;;;;;;;;;;;2074889;28;1956;-86
2021/11/21 06:17:19;;;;;;;;;;;;;;;;;;2067081;28;1463;-86
2021/11/21 06:18:20;;;;;;;;;;;;;;;;;;2075234;28;1392;-85
2021/11/21 06:19:22;;;;;;;;;;;;;;;;;;2066677;28;2105;-85
2021/11/21 06:20:23;;;;;;;;;;;;;;;;;;2075031;28;1387;-85
2021/11/21 06:21:24;;;;;;;;;;;;;;;;;;2074908;28;1362;-86
2021/11/21 06:22:25;;;;;;;;;;;;;;;;;;2075401;28;1323;-86
2021/11/21 06:23:32;;;;;;;;;;;;;;;;;;2071164;28;1567;-85
2021/11/21 06:24:32;;;;;;;;;;;;;;;;;;2074682;28;1933;-85
2021/11/21 06:25:35;;;;;;;;;;;;;;;;;;2074597;28;1987;-91
2021/11/21 06:26:35;;;;;;;;;;;;;;;;;;2074952;28;1359;-92
2021/11/21 06:27:37;;;;;;;;;;;;;;;;;;2074886;28;1382;-92
2021/11/21 06:28:38;;;;;;;;;;;;;;;;;;2075250;28;1700;-92
2021/11/21 06:29:43;;;;;;;;;;;;;;;;;;2074885;28;1872;-92
2021/11/21 06:30:49;;;;;;;;;;;;;;;;;;2075273;28;1404;-92
2021/11/21 06:31:52;;;;;;;;;;;;;;;;;;2082650;28;2093;-91
2021/11/21 06:32:57;;;;;;;;;;;;;;;;;;2075970;28;1418;-90
2021/11/21 06:33:58;;;;;;;;;;;;;;;;;;2074680;28;1911;-91
2021/11/21 06:35:00;;;;;;;;;;;;;;;;;;2074825;28;1362;-92
2021/11/21 06:36:02;;;;;;;;;;;;;;;;;;2083632;28;1256;-91
2021/11/21 06:37:06;;;;;;;;;;;;;;;;;;2082857;28;1398;-91
2021/11/21 06:38:08;;;;;;;;;;;;;;;;;;2075203;28;1263;-92
2021/11/21 06:39:12;;;;;;;;;;;;;;;;;;2082969;28;2023;-91
2021/11/21 06:40:13;;;;;;;;;;;;;;;;;;2083579;28;1550;-91
2021/11/21 06:41:15;;;;;;;;;;;;;;;;;;2083215;28;1422;-90
2021/11/21 06:42:16;;;;;;;;;;;;;;;;;;2082876;28;1508;-91
2021/11/21 06:43:18;;;;;;;;;;;;;;;;;;2074777;28;1475;-92
2021/11/21 06:44:21;;;;;;;;;;;;;;;;;;2074503;28;1951;-91
2021/11/21 06:45:23;;;;;;;;;;;;;;;;;;2074942;28;1902;-91
2021/11/21 06:46:25;;;;;;;;;;;;;;;;;;2074866;28;1407;-91
2021/11/21 06:47:29;;;;;;;;;;;;;;;;;;2074391;28;1367;-92
2021/11/21 06:48:30;;;;;;;;;;;;;;;;;;2067409;28;1309;-91
2021/11/21 06:49:32;;;;;;;;;;;;;;;;;;2073403;28;1879;-93
2021/11/21 06:50:32;;;;;;;;;;;;;;;;;;2072938;28;1360;-92
2021/11/21 06:51:37;;;;;;;;;;;;;;;;;;2082800;28;1276;-92
2021/11/21 06:52:42;;;;;;;;;;;;;;;;;;2075721;28;1217;-91
2021/11/21 06:53:47;;;;;;;;;;;;;;;;;;2074787;28;1975;-90
2021/11/21 06:54:49;;;;;;;;;;;;;;;;;;2075009;28;1442;-92
2021/11/21 06:55:51;;;;;;;;;;;;;;;;;;2075140;28;1450;-90
2021/11/21 06:56:52;;;;;;;;;;;;;;;;;;2074991;28;1980;-91
2021/11/21 06:57:55;;;;;;;;;;;;;;;;;;2075458;28;1451;-90
2021/11/21 06:58:56;;;;;;;;;;;;;;;;;;2074474;28;1664;-88
2021/11/21 06:59:59;;;;;;;;;;;;;;;;;;2075502;28;1258;-90
2021/11/21 07:01:00;;;;;;;;;;;;;;;;;;2070044;28;1810;-90
2021/11/21 07:02:03;;;;;;;;;;;;;;;;;;2063006;28;1352;-89
2021/11/21 07:03:04;;;;;;;;;;;;;;;;;;2067936;28;1445;-89
2021/11/21 07:04:06;;;;;;;;;;;;;;;;;;2074781;28;1941;-90
2021/11/21 07:05:08;;;;;;;;;;;;;;;;;;2074709;28;1981;-91
2021/11/21 07:06:25;;;;;;;;;;;;;;;;;;2066416;28;2032;-91
2021/11/21 07:07:26;;;;;;;;;;;;;;;;;;2076612;28;1421;-92
2021/11/21 07:08:31;;;;;;;;;;;;;;;;;;2083084;28;1361;-92
2021/11/21 07:09:32;;;;;;;;;;;;;;;;;;2074208;28;1918;-92
2021/11/21 07:10:36;;;;;;;;;;;;;;;;;;2077713;28;1413;-92
2021/11/21 07:11:52;;;;;;;;;;;;;;;;;;2074603;28;1861;-91
2021/11/21 07:12:58;;;;;;;;;;;;;;;;;;2069390;28;1431;-90
2021/11/21 07:14:01;;;;;;;;;;;;;;;;;;2067041;28;1812;-91
2021/11/21 07:15:04;;;;;;;;;;;;;;;;;;2066606;28;1441;-92
2021/11/21 07:16:05;;;;;;;;;;;;;;;;;;2067457;28;2059;-91
2021/11/21 07:17:08;;;;;;;;;;;;;;;;;;2074371;28;1419;-92
2021/11/21 07:18:11;;;;;;;;;;;;;;;;;;2066660;28;1254;-92
2021/11/21 07:19:13;;;;;;;;;;;;;;;;;;2066459;28;1893;-91
2021/11/21 07:20:17;;;;;;;;;;;;;;;;;;2082935;28;1302;-91
2021/11/21 07:21:22;;;;;;;;;;;;;;;;;;2075421;28;1208;-91
2021/11/21 07:22:22;;;;;;;;;;;;;;;;;;2079137;28;1441;-91
2021/11/21 07:23:25;;;;;;;;;;;;;;;;;;2074761;28;1276;-92
2021/11/21 07:24:29;;;;;;;;;;;;;;;;;;2074726;28;1196;-92
2021/11/21 07:25:32;;;;;;;;;;;;;;;;;;2075181;28;1985;-92
2021/11/21 07:26:35;;;;;;;;;;;;;;;;;;2074981;28;1186;-91
2021/11/21 07:27:44;;;;;;;;;;;;;;;;;;2071156;28;1434;-90
2021/11/21 07:28:45;;;;;;;;;;;;;;;;;;2068581;28;1973;-90
2021/11/21 07:29:49;;;;;;;;;;;;;;;;;;2077848;28;1453;-92
2021/11/21 07:30:50;;;;;;;;;;;;;;;;;;2059199;28;1155;-90
2021/11/21 07:31:55;;;;;;;;;;;;;;;;;;2073442;28;2032;-92
2021/11/21 07:33:01;;;;;;;;;;;;;;;;;;2066880;28;1335;-91
2021/11/21 07:34:02;;;;;;;;;;;;;;;;;;2061844;28;1436;-91
2021/11/21 07:35:04;;;;;;;;;;;;;;;;;;2074541;28;1327;-90
2021/11/21 07:36:05;;;;;;;;;;;;;;;;;;2071088;28;1747;-91
2021/11/21 07:37:07;;;;;;;;;;;;;;;;;;2074652;28;1494;-91
2021/11/21 07:38:08;;;;;;;;;;;;;;;;;;2075335;28;1237;-90
2021/11/21 07:39:10;;;;;;;;;;;;;;;;;;2062311;28;1728;-90
2021/11/21 07:40:12;;;;;;;;;;;;;;;;;;2066440;28;1490;-89
2021/11/21 07:41:14;;;;;;;;;;;;;;;;;;2066372;28;1269;-88